Terminal Aerodrome Forecast
Issued by NWS Wilmington, OH

Home | Current Version | Previous Version | Text Only | Print | Product List | Glossary On
Versions: 1 2 3 4 5 6 7 8 9 10 11 12 13 14 15 16 17 18 19 20 21 22 23 24 25
883
FTUS41 KILN 252002 AAB
TAFILN
TAF AMD
KILN 252002Z 2520/2618 26017G28KT P6SM VCSH SCT025 OVC040
      TEMPO 2520/2522 BKN025
     FM260000 28014KT P6SM BKN050
     FM260600 30010KT P6SM SCT045
     FM261400 22008KT P6SM SCT150=

USA.gov is the U.S. government's official web portal to all federal, state and local government web resources and services.